createdAt,value
2022-10-21T00:02:20.140Z,10.30
2022-10-21T00:06:37.316Z,10.30
2022-10-21T00:10:57.064Z,10.30
2022-10-21T00:15:14.258Z,10.30
2022-10-21T00:19:31.415Z,10.30
2022-10-21T00:23:50.219Z,10.20
2022-10-21T00:28:07.345Z,10.20
2022-10-21T00:32:24.554Z,10.30
2022-10-21T00:36:41.855Z,10.20
2022-10-21T00:40:59.192Z,10.20
2022-10-21T00:45:20.492Z,10.20
2022-10-21T00:50:00.198Z,10.20
2022-10-21T00:54:19.588Z,10.30
2022-10-21T00:58:37.372Z,10.30
2022-10-21T01:02:54.984Z,10.30
2022-10-21T01:07:13.055Z,10.40
2022-10-21T01:11:32.812Z,10.40
2022-10-21T01:16:14.831Z,10.40
2022-10-21T01:21:02.858Z,10.40
2022-10-21T01:25:47.930Z,10.30
2022-10-21T01:30:33.942Z,10.20
2022-10-21T01:35:15.009Z,10.30
2022-10-21T01:39:36.686Z,10.30
2022-10-21T01:44:22.992Z,10.40
2022-10-21T01:48:51.109Z,10.40
2022-10-21T01:53:11.280Z,10.30
2022-10-21T01:57:35.156Z,10.40
2022-10-21T02:01:54.268Z,10.40
2022-10-21T02:06:14.095Z,10.40
2022-10-21T02:10:37.350Z,10.30
2022-10-21T02:14:55.328Z,10.30
2022-10-21T02:19:17.886Z,10.30
2022-10-21T02:23:51.681Z,10.30
2022-10-21T02:28:09.567Z,10.20
2022-10-21T02:32:45.186Z,10.20
2022-10-21T02:41:55.772Z,10.30
2022-10-21T02:46:14.381Z,10.30
2022-10-21T02:50:31.590Z,10.30
2022-10-21T02:54:48.778Z,10.30
2022-10-21T02:59:06.116Z,10.20
2022-10-21T03:03:23.549Z,10.20
2022-10-21T03:07:41.613Z,10.10
2022-10-21T03:11:59.042Z,10.10
2022-10-21T03:16:16.271Z,10.00
2022-10-21T03:20:33.495Z,10.00
2022-10-21T03:24:50.769Z,9.80
2022-10-21T03:29:08.077Z,9.70
2022-10-21T03:33:25.434Z,9.70
2022-10-21T03:37:42.764Z,9.60
2022-10-21T03:41:59.956Z,9.60
2022-10-21T03:46:17.112Z,9.50
2022-10-21T03:50:34.588Z,9.50
2022-10-21T03:54:51.869Z,9.40
2022-10-21T03:59:09.319Z,9.20
2022-10-21T04:03:26.584Z,9.20
2022-10-21T04:07:43.953Z,9.10
2022-10-21T04:12:01.793Z,9.10
2022-10-21T04:16:20.862Z,9.00
2022-10-21T04:20:38.077Z,9.00
2022-10-21T04:24:55.282Z,8.90
2022-10-21T04:29:12.668Z,8.90
2022-10-21T04:33:29.965Z,8.90
2022-10-21T04:37:47.159Z,8.90
2022-10-21T04:42:04.472Z,9.00
2022-10-21T04:46:21.779Z,8.90
2022-10-21T04:50:39.203Z,8.80
2022-10-21T04:54:56.484Z,8.70
2022-10-21T04:59:13.665Z,8.60
2022-10-21T05:03:31.144Z,8.60
2022-10-21T05:07:48.366Z,8.60
2022-10-21T05:12:05.737Z,8.60
2022-10-21T05:16:23.977Z,8.50
2022-10-21T05:20:41.220Z,8.40
2022-10-21T05:24:58.475Z,8.40
2022-10-21T05:29:15.708Z,8.30
2022-10-21T05:33:32.998Z,8.30
2022-10-21T05:37:50.310Z,8.30
2022-10-21T05:42:07.480Z,8.20
2022-10-21T05:46:24.690Z,8.10
2022-10-21T05:50:41.942Z,8.10
2022-10-21T05:54:59.119Z,8.10
2022-10-21T05:59:16.616Z,8.00
2022-10-21T06:03:34.955Z,8.00
2022-10-21T06:07:52.185Z,7.90
2022-10-21T06:12:09.603Z,7.90
2022-10-21T06:16:26.804Z,7.90
2022-10-21T06:20:44.030Z,7.90
2022-10-21T06:25:01.192Z,7.90
2022-10-21T06:29:18.991Z,8.00
2022-10-21T06:33:36.145Z,8.20
2022-10-21T06:37:53.349Z,8.20
2022-10-21T06:42:10.612Z,8.30
2022-10-21T06:46:27.853Z,8.40
2022-10-21T06:50:45.065Z,8.50
2022-10-21T06:55:02.240Z,8.50
2022-10-21T06:59:19.500Z,8.60
2022-10-21T07:03:36.688Z,8.80
2022-10-21T07:07:53.909Z,9.00
2022-10-21T07:12:11.593Z,9.20
2022-10-21T07:16:35.224Z,9.40
2022-10-21T07:20:52.500Z,9.50
2022-10-21T07:25:09.784Z,9.60
2022-10-21T07:29:27.201Z,9.80
2022-10-21T07:33:44.934Z,9.90
2022-10-21T07:38:02.321Z,10.00
2022-10-21T07:42:19.493Z,10.20
2022-10-21T07:46:40.003Z,10.50
2022-10-21T07:51:07.762Z,10.70
2022-10-21T07:55:25.017Z,10.80
2022-10-21T07:59:42.215Z,10.80
2022-10-21T08:03:59.564Z,11.10
2022-10-21T08:08:17.105Z,11.30
2022-10-21T08:12:34.267Z,11.40
2022-10-21T08:16:53.258Z,11.50
2022-10-21T08:21:11.202Z,11.90
2022-10-21T08:25:30.053Z,12.30
2022-10-21T08:29:47.371Z,12.50
2022-10-21T08:34:04.523Z,12.60
2022-10-21T08:38:21.796Z,12.50
2022-10-21T08:42:42.546Z,12.50
2022-10-21T08:47:06.112Z,13.00
2022-10-21T08:51:28.477Z,13.30
2022-10-21T08:55:46.455Z,13.70
2022-10-21T09:00:16.237Z,14.00
2022-10-21T09:05:07.281Z,14.10
2022-10-21T09:09:34.995Z,14.60
2022-10-21T09:14:03.852Z,14.60
2022-10-21T09:18:39.035Z,14.80
2022-10-21T09:23:23.104Z,15.00
2022-10-21T09:27:55.191Z,14.80
2022-10-21T09:32:32.072Z,14.70
2022-10-21T09:36:51.234Z,15.10
2022-10-21T09:41:18.121Z,15.10
2022-10-21T09:45:38.888Z,15.10
2022-10-21T09:50:07.682Z,15.20
2022-10-21T09:54:28.200Z,15.20
2022-10-21T09:58:50.740Z,15.10
2022-10-21T10:03:09.208Z,15.30
2022-10-21T10:07:33.248Z,15.70
2022-10-21T10:12:10.718Z,15.80
2022-10-21T10:16:32.509Z,15.80
2022-10-21T10:21:09.770Z,15.80
2022-10-21T10:25:31.871Z,16.00
2022-10-21T10:29:56.256Z,16.20
2022-10-21T10:34:22.083Z,16.00
2022-10-21T10:38:45.137Z,16.20
2022-10-21T10:43:07.930Z,16.30
2022-10-21T10:47:29.038Z,16.30
2022-10-21T10:51:48.615Z,16.10
2022-10-21T10:56:05.942Z,16.10
2022-10-21T11:00:24.007Z,16.30
2022-10-21T11:05:05.941Z,16.20
2022-10-21T11:09:27.318Z,16.20
2022-10-21T11:13:44.839Z,16.20
2022-10-21T11:18:29.138Z,16.20
2022-10-21T11:23:12.891Z,16.20
2022-10-21T11:27:58.081Z,16.20
2022-10-21T11:32:30.128Z,16.00
2022-10-21T11:37:16.891Z,15.80
2022-10-21T11:41:41.667Z,15.50
2022-10-21T11:46:06.047Z,15.30
2022-10-21T11:50:27.473Z,15.10
2022-10-21T11:55:15.903Z,15.00
2022-10-21T11:59:52.496Z,15.00
2022-10-21T12:04:28.949Z,15.00
2022-10-21T12:08:57.549Z,15.10
2022-10-21T12:13:29.106Z,15.20
2022-10-21T12:17:49.365Z,15.10
2022-10-21T12:22:10.889Z,15.10
2022-10-21T12:31:34.709Z,15.20
2022-10-21T12:35:55.228Z,15.20
2022-10-21T12:40:37.330Z,15.30
2022-10-21T12:44:54.789Z,15.20
2022-10-21T12:49:32.448Z,15.00
2022-10-21T12:54:14.917Z,15.00
2022-10-21T12:58:34.004Z,15.00
2022-10-21T13:03:09.293Z,15.10
2022-10-21T13:07:26.481Z,15.10
2022-10-21T13:11:43.695Z,15.20
2022-10-21T13:16:22.267Z,15.10
2022-10-21T13:20:39.742Z,15.10
2022-10-21T13:24:57.037Z,15.00
2022-10-21T13:29:16.310Z,15.10
2022-10-21T13:33:37.158Z,15.10
2022-10-21T13:38:17.620Z,14.90
2022-10-21T13:42:42.936Z,14.80
2022-10-21T13:47:20.899Z,14.90
2022-10-21T13:51:47.138Z,14.80
2022-10-21T13:56:07.456Z,14.70
2022-10-21T14:00:32.092Z,14.80
2022-10-21T14:04:49.350Z,14.70
2022-10-21T14:09:09.670Z,14.70
2022-10-21T14:13:36.541Z,14.80
2022-10-21T14:17:58.544Z,14.60
2022-10-21T14:22:22.259Z,14.60
2022-10-21T14:26:45.752Z,14.60
2022-10-21T14:35:30.361Z,14.30
2022-10-21T14:39:48.006Z,14.10
2022-10-21T14:44:26.823Z,14.00
2022-10-21T14:48:53.603Z,13.90
2022-10-21T14:53:18.745Z,14.00
2022-10-21T14:57:53.041Z,14.20
2022-10-21T15:02:26.850Z,14.20
2022-10-21T15:07:00.471Z,14.20
2022-10-21T15:11:20.818Z,14.10
2022-10-21T15:15:41.300Z,14.20
2022-10-21T15:19:58.514Z,14.10
2022-10-21T15:24:44.259Z,14.00
2022-10-21T15:29:11.583Z,14.00
2022-10-21T15:33:29.461Z,13.90
2022-10-21T15:37:50.784Z,13.90
2022-10-21T15:42:09.859Z,13.90
2022-10-21T15:46:29.362Z,13.80
2022-10-21T15:50:46.637Z,13.70
2022-10-21T15:55:04.143Z,13.70
2022-10-21T15:59:29.746Z,13.70
2022-10-21T16:03:47.199Z,13.60
2022-10-21T16:08:04.763Z,13.50
2022-10-21T16:12:22.422Z,13.50
2022-10-21T16:16:43.812Z,13.40
2022-10-21T16:21:01.039Z,13.50
2022-10-21T16:25:18.957Z,13.40
2022-10-21T16:29:36.180Z,13.40
2022-10-21T16:33:53.952Z,13.50
2022-10-21T16:38:11.523Z,13.40
2022-10-21T16:42:28.731Z,13.40
2022-10-21T16:46:55.004Z,13.40
2022-10-21T16:51:12.520Z,13.60
2022-10-21T16:55:30.036Z,13.60
2022-10-21T16:59:47.204Z,13.50
2022-10-21T17:04:04.808Z,13.50
2022-10-21T17:08:22.032Z,13.50
2022-10-21T17:12:39.294Z,13.40
2022-10-21T17:16:56.522Z,13.40
2022-10-21T17:21:21.078Z,13.50
2022-10-21T17:25:38.380Z,13.50
2022-10-21T17:29:55.631Z,13.50
2022-10-21T17:34:27.347Z,13.60
2022-10-21T17:38:45.148Z,13.60
2022-10-21T17:43:02.340Z,13.60
2022-10-21T17:47:19.512Z,13.60
2022-10-21T17:51:36.684Z,13.70
2022-10-21T17:56:01.500Z,13.80
2022-10-21T18:00:18.864Z,13.90
2022-10-21T18:04:37.388Z,13.80
2022-10-21T18:08:59.633Z,13.80
2022-10-21T18:13:18.061Z,13.80
2022-10-21T18:17:37.160Z,13.90
2022-10-21T18:21:54.619Z,13.90
2022-10-21T18:26:15.052Z,13.80
2022-10-21T18:30:33.534Z,13.80
2022-10-21T18:34:50.979Z,13.70
2022-10-21T18:39:08.259Z,13.70
2022-10-21T18:43:25.513Z,13.70
2022-10-21T18:47:47.102Z,13.70
2022-10-21T18:52:04.764Z,13.70
2022-10-21T18:56:24.795Z,13.60
2022-10-21T19:00:42.135Z,13.70
2022-10-21T19:05:01.991Z,13.80
2022-10-21T19:09:22.581Z,13.80
2022-10-21T19:13:39.803Z,13.80
2022-10-21T19:17:57.043Z,13.80
2022-10-21T19:22:17.168Z,13.60
2022-10-21T19:26:37.123Z,13.50
2022-10-21T19:30:54.457Z,13.70
2022-10-21T19:35:11.671Z,13.70
2022-10-21T19:39:28.934Z,13.60
2022-10-21T19:43:47.148Z,13.60
2022-10-21T19:48:04.556Z,13.70
2022-10-21T19:52:21.737Z,13.80
2022-10-21T19:56:39.471Z,13.70
2022-10-21T20:01:10.128Z,13.70
2022-10-21T20:05:29.797Z,13.70
2022-10-21T20:09:46.988Z,13.80
2022-10-21T20:14:05.086Z,13.80
2022-10-21T20:18:24.889Z,13.80
2022-10-21T20:22:44.414Z,13.70
2022-10-21T20:27:02.412Z,13.60
2022-10-21T20:31:19.998Z,13.80
2022-10-21T20:35:42.005Z,13.70
2022-10-21T20:39:59.183Z,13.70
2022-10-21T20:44:16.977Z,13.90
2022-10-21T20:48:34.863Z,13.70
2022-10-21T20:52:52.131Z,13.60
2022-10-21T20:57:09.388Z,13.50
2022-10-21T21:01:31.072Z,13.40
2022-10-21T21:05:48.262Z,13.30
2022-10-21T21:10:06.041Z,13.40
2022-10-21T21:14:23.235Z,13.40
2022-10-21T21:18:42.787Z,13.30
2022-10-21T21:23:00.136Z,13.30
2022-10-21T21:27:17.319Z,13.20
2022-10-21T21:31:36.990Z,13.00
2022-10-21T21:35:57.620Z,12.90
2022-10-21T21:40:14.819Z,12.80
2022-10-21T21:44:32.172Z,12.70
2022-10-21T21:49:05.442Z,12.60
2022-10-21T21:53:24.907Z,12.50
2022-10-21T21:57:42.035Z,12.40
2022-10-21T22:01:59.149Z,12.30
2022-10-21T22:06:19.769Z,12.40
2022-10-21T22:10:36.992Z,12.40
2022-10-21T22:14:54.511Z,12.10
2022-10-21T22:19:12.814Z,11.90
2022-10-21T22:23:29.992Z,12.00
2022-10-21T22:27:47.396Z,11.80
2022-10-21T22:32:05.165Z,11.80
2022-10-21T22:36:22.442Z,11.70
2022-10-21T22:40:39.605Z,11.80
2022-10-21T22:44:56.792Z,11.80
2022-10-21T22:49:14.153Z,11.70
2022-10-21T22:53:31.332Z,11.70
2022-10-21T22:57:48.733Z,11.60
2022-10-21T23:02:05.913Z,11.60
2022-10-21T23:06:23.686Z,11.60
2022-10-21T23:10:41.234Z,11.70
2022-10-21T23:14:58.419Z,11.80
2022-10-21T23:19:15.650Z,11.80
2022-10-21T23:23:33.037Z,11.70
2022-10-21T23:27:50.736Z,11.70
2022-10-21T23:32:08.006Z,11.60
2022-10-21T23:36:25.262Z,11.60
2022-10-21T23:40:42.438Z,11.60
2022-10-21T23:44:59.694Z,11.50
2022-10-21T23:49:17.083Z,11.40
2022-10-21T23:53:34.328Z,11.40
2022-10-21T23:57:51.565Z,11.30
